Time;durP1;ratioP1;P1;durP2;ratioP2;P2;SDS_P1;SDS_P2;PMS_P1;PMS_P2;Temp;Humidity;BMP_temperature;BMP_pressure;BME280_temperature;BME280_humidity;BME280_pressure;Samples;Min_cycle;Max_cycle;Signal;HPM_P1;HPM_P2
2022/07/31 08:53:27;;;;;;;2.50;1.55;;;23.30;94.60;;;;;;5065087;28;20777;-55
2022/07/31 08:55:59;;;;;;;3.47;1.60;;;23.20;94.40;;;;;;5049629;28;20037;-50
2022/07/31 08:58:28;;;;;;;4.32;1.60;;;23.30;94.50;;;;;;5048694;28;20052;-56
2022/07/31 09:00:55;;;;;;;6.03;1.60;;;23.30;94.50;;;;;;5048014;28;20439;-49
2022/07/31 09:03:22;;;;;;;5.78;1.50;;;23.30;94.30;;;;;;5028577;28;20050;-55
2022/07/31 09:05:52;;;;;;;3.05;1.90;;;23.40;94.20;;;;;;5044933;28;20045;-51
2022/07/31 09:08:19;;;;;;;2.50;1.30;;;23.30;94.20;;;;;;5048237;28;20049;-47
2022/07/31 09:10:48;;;;;;;4.40;1.38;;;23.30;94.20;;;;;;5048636;28;20061;-53
2022/07/31 09:13:17;;;;;;;4.28;1.42;;;23.30;94.30;;;;;;5045066;28;20077;-48
2022/07/31 09:15:45;;;;;;;2.92;1.40;;;23.40;94.00;;;;;;5049838;28;20069;-45
2022/07/31 09:18:13;;;;;;;6.40;1.50;;;23.40;94.10;;;;;;5048231;28;20082;-49
2022/07/31 09:20:40;;;;;;;2.80;1.42;;;23.50;93.90;;;;;;5048532;28;20045;-50
2022/07/31 09:23:06;;;;;;;4.75;1.80;;;23.50;93.80;;;;;;5046220;28;20526;-51
2022/07/31 09:25:37;;;;;;;4.55;1.88;;;23.40;93.90;;;;;;5045098;28;20131;-53
2022/07/31 09:28:04;;;;;;;5.03;1.60;;;23.50;94.20;;;;;;5048045;28;20136;-54
2022/07/31 09:30:32;;;;;;;3.67;1.55;;;23.40;93.90;;;;;;5047861;28;20132;-51
2022/07/31 09:32:59;;;;;;;3.17;1.50;;;23.60;93.90;;;;;;5048401;28;20439;-55
2022/07/31 09:35:48;;;;;;;3.72;1.60;;;23.60;94.10;;;;;;5047365;28;20049;-49
2022/07/31 09:38:15;;;;;;;4.63;1.85;;;23.60;94.20;;;;;;5051047;28;20064;-55
2022/07/31 09:41:02;;;;;;;3.88;1.90;;;23.60;94.20;;;;;;5047936;28;20128;-52
2022/07/31 09:44:03;;;;;;;3.55;1.80;;;23.70;94.00;;;;;;5049984;28;20045;-53
2022/07/31 09:46:36;;;;;;;4.78;1.83;;;23.60;94.00;;;;;;5047563;28;20045;-51
2022/07/31 09:49:03;;;;;;;4.78;1.85;;;23.60;94.20;;;;;;5048775;28;20057;-53
2022/07/31 09:51:30;;;;;;;3.78;1.75;;;23.50;94.30;;;;;;5031184;28;20499;-55
2022/07/31 09:53:58;;;;;;;4.25;1.90;;;23.60;94.40;;;;;;5049619;28;20068;-49
2022/07/31 09:56:57;;;;;;;4.00;1.80;;;23.60;94.30;;;;;;5046140;28;20045;-53
2022/07/31 09:59:27;;;;;;;5.55;1.75;;;23.70;94.10;;;;;;5047518;28;20049;-54
2022/07/31 10:01:54;;;;;;;4.65;1.77;;;23.60;94.10;;;;;;5047658;28;20053;-52
2022/07/31 10:04:22;;;;;;;5.60;1.95;;;23.60;94.10;;;;;;5040360;28;20041;-55
2022/07/31 10:06:49;;;;;;;4.63;1.67;;;23.40;94.20;;;;;;5034044;28;20436;-56
2022/07/31 10:09:16;;;;;;;5.10;1.90;;;23.40;94.10;;;;;;5023547;28;20500;-50
2022/07/31 10:12:01;;;;;;;3.63;1.80;;;23.50;94.10;;;;;;5035785;28;20230;-55
2022/07/31 10:14:29;;;;;;;3.35;1.42;;;23.70;93.80;;;;;;5036409;28;20132;-53
2022/07/31 10:16:56;;;;;;;4.35;1.75;;;23.70;93.60;;;;;;5035117;28;20511;-54
2022/07/31 10:19:38;;;;;;;3.45;1.35;;;23.80;93.50;;;;;;5035333;28;20095;-57
2022/07/31 10:22:34;;;;;;;4.13;1.67;;;23.90;93.40;;;;;;5050775;28;20049;-55
2022/07/31 10:25:01;;;;;;;5.50;1.60;;;24.00;93.20;;;;;;5038587;28;20045;-55
2022/07/31 10:27:30;;;;;;;5.35;1.60;;;24.10;93.20;;;;;;5033714;28;20049;-51
2022/07/31 10:30:06;;;;;;;3.63;1.48;;;24.20;92.70;;;;;;5037573;28;20041;-55
2022/07/31 10:32:37;;;;;;;3.20;1.40;;;24.20;92.40;;;;;;5033886;28;20478;-50
2022/07/31 10:35:33;;;;;;;5.18;1.55;;;24.20;92.50;;;;;;5019616;28;20049;-51
2022/07/31 10:38:18;;;;;;;;;;;24.30;92.40;;;;;;5033973;28;20486;-51
2022/07/31 10:40:47;;;;;;;5.78;1.70;;;24.30;92.20;;;;;;5034005;28;19979;-52
2022/07/31 10:43:14;;;;;;;4.00;1.60;;;24.30;92.30;;;;;;5033590;28;20046;-51
2022/07/31 10:45:41;;;;;;;5.13;1.55;;;24.40;92.10;;;;;;5020996;28;20049;-56
2022/07/31 10:48:26;;;;;;;5.03;1.38;;;24.50;92.10;;;;;;5033209;28;20128;-55
2022/07/31 10:51:04;;;;;;;3.55;1.60;;;24.60;91.90;;;;;;5038168;28;20151;-58
2022/07/31 10:53:50;;;;;;;2.63;1.40;;;24.70;91.60;;;;;;5030492;28;20064;-53
2022/07/31 10:56:57;;;;;;;3.40;1.30;;;24.80;91.40;;;;;;5036737;28;20128;-45
2022/07/31 10:59:46;;;;;;;4.10;1.70;;;24.90;91.40;;;;;;5034112;28;20053;-49
2022/07/31 11:02:45;;;;;;;2.55;1.27;;;25.00;91.40;;;;;;5048317;28;20049;-56
2022/07/31 11:05:34;;;;;;;2.95;1.42;;;25.20;91.20;;;;;;5034049;28;20049;-53
2022/07/31 11:08:41;;;;;;;2.75;1.25;;;25.30;91.10;;;;;;5033856;28;20072;-60
2022/07/31 11:11:28;;;;;;;5.22;1.60;;;25.30;90.80;;;;;;5034264;28;20045;-59
2022/07/31 11:14:15;;;;;;;3.17;1.38;;;25.30;90.90;;;;;;5035214;28;20110;-56
2022/07/31 11:17:00;;;;;;;3.10;1.23;;;25.30;90.60;;;;;;5032389;28;20057;-54
2022/07/31 11:19:45;;;;;;;2.53;1.50;;;25.30;90.50;;;;;;5036873;28;20045;-53
2022/07/31 11:22:12;;;;;;;3.80;1.40;;;25.40;90.90;;;;;;5034248;28;20531;-58
2022/07/31 11:24:57;;;;;;;4.00;1.50;;;25.40;90.90;;;;;;5036811;28;20395;-47
2022/07/31 11:27:24;;;;;;;3.83;1.35;;;25.40;91.40;;;;;;5033900;28;20034;-50
2022/07/31 11:29:51;;;;;;;3.47;1.58;;;25.30;91.50;;;;;;5033616;28;20049;-58
2022/07/31 11:32:28;;;;;;;4.07;1.40;;;25.30;91.30;;;;;;5033925;28;20527;-52
2022/07/31 11:34:55;;;;;;;2.35;1.20;;;25.50;90.80;;;;;;5032801;28;20091;-49
2022/07/31 11:37:25;;;;;;;2.78;1.42;;;25.50;90.40;;;;;;5029719;28;20041;-53
2022/07/31 11:40:02;;;;;;;3.58;1.50;;;25.70;90.30;;;;;;5033882;28;20057;-54
2022/07/31 11:42:29;;;;;;;3.85;1.40;;;25.70;90.10;;;;;;5035251;28;20077;-48
2022/07/31 11:45:01;;;;;;;4.65;1.55;;;25.80;90.10;;;;;;5035352;28;20041;-56
2022/07/31 11:47:37;;;;;;;3.70;1.40;;;25.80;89.90;;;;;;5033534;28;20046;-47
2022/07/31 11:50:29;;;;;;;2.83;1.17;;;25.90;90.10;;;;;;5037137;28;20132;-54
2022/07/31 11:52:56;;;;;;;4.40;1.30;;;25.90;89.50;;;;;;5032077;28;20050;-55
2022/07/31 11:55:23;;;;;;;3.58;1.40;;;25.90;89.50;;;;;;5036461;28;20036;-57
2022/07/31 11:57:50;;;;;;;3.67;1.40;;;26.00;89.20;;;;;;5033263;28;20045;-53
2022/07/31 12:00:19;;;;;;;2.53;1.42;;;25.90;89.80;;;;;;5033464;28;20426;-49
2022/07/31 12:02:56;;;;;;;4.57;1.52;;;25.90;89.80;;;;;;5030145;28;20046;-55
2022/07/31 12:05:22;;;;;;;3.90;1.50;;;25.80;89.80;;;;;;5033229;28;20057;-55
2022/07/31 12:08:04;;;;;;;3.80;1.25;;;25.60;89.20;;;;;;5034286;28;20051;-50
2022/07/31 12:10:31;;;;;;;3.75;1.48;;;25.60;89.90;;;;;;5032952;28;20045;-57
2022/07/31 12:12:58;;;;;;;3.63;1.30;;;25.70;89.70;;;;;;5032726;28;20041;-53
2022/07/31 12:15:25;;;;;;;5.57;1.23;;;25.70;89.70;;;;;;5035815;28;20051;-50
2022/07/31 12:17:51;;;;;;;5.80;1.58;;;25.70;89.80;;;;;;5035346;28;20068;-51
2022/07/31 12:20:18;;;;;;;2.72;1.17;;;25.60;89.50;;;;;;5033074;28;20511;-53
2022/07/31 12:23:01;;;;;;;5.40;1.20;;;25.50;89.60;;;;;;5038799;28;20107;-52
2022/07/31 12:25:28;;;;;;;2.38;1.05;;;25.30;90.50;;;;;;5032905;28;20049;-51
2022/07/31 12:27:54;;;;;;;3.22;0.85;;;25.00;90.70;;;;;;5033262;28;20420;-58
2022/07/31 12:30:24;;;;;;;3.15;0.90;;;24.80;92.20;;;;;;5032864;28;20045;-54
2022/07/31 12:32:55;;;;;;;3.00;0.65;;;24.60;92.80;;;;;;5037614;28;20033;-56
2022/07/31 12:35:22;;;;;;;1.92;0.63;;;24.70;92.30;;;;;;5026320;28;20068;-59
2022/07/31 12:37:49;;;;;;;2.05;0.70;;;24.90;92.00;;;;;;5030040;28;20064;-57
2022/07/31 12:40:16;;;;;;;3.25;0.70;;;25.20;91.90;;;;;;5031753;28;20048;-49
2022/07/31 12:42:43;;;;;;;1.63;0.80;;;25.50;91.50;;;;;;5033240;28;20045;-47
2022/07/31 12:45:10;;;;;;;2.78;0.93;;;25.50;91.20;;;;;;5032767;28;20047;-55
2022/07/31 12:47:46;;;;;;;2.40;0.70;;;25.70;91.10;;;;;;5032611;28;20045;-58
2022/07/31 12:50:18;;;;;;;2.40;0.60;;;25.70;90.70;;;;;;5035918;28;20050;-53
2022/07/31 12:52:44;;;;;;;2.95;0.68;;;25.70;90.50;;;;;;5032403;28;20045;-56
2022/07/31 12:55:11;;;;;;;2.17;0.90;;;25.80;90.50;;;;;;5037279;28;20627;-58
2022/07/31 12:57:38;;;;;;;1.98;0.60;;;25.70;90.60;;;;;;5032677;28;20041;-58
2022/07/31 13:00:17;;;;;;;3.30;0.70;;;25.70;90.50;;;;;;5033237;28;20042;-52
2022/07/31 13:02:44;;;;;;;2.42;0.70;;;25.80;90.70;;;;;;5036989;28;20054;-53
2022/07/31 13:05:10;;;;;;;4.25;0.63;;;26.00;90.30;;;;;;5031570;28;20504;-55
2022/07/31 13:07:37;;;;;;;1.80;0.57;;;26.20;90.00;;;;;;5035787;28;20051;-61
2022/07/31 13:10:04;;;;;;;1.70;0.60;;;26.40;89.60;;;;;;5032541;28;20045;-60
2022/07/31 13:12:41;;;;;;;1.60;0.50;;;26.50;88.70;;;;;;5035567;28;20046;-56
2022/07/31 13:15:08;;;;;;;3.67;0.73;;;26.40;88.30;;;;;;5032725;28;20092;-57
2022/07/31 13:17:35;;;;;;;1.98;0.60;;;26.40;88.50;;;;;;5032729;28;20053;-52
2022/07/31 13:20:03;;;;;;;1.58;0.45;;;26.40;88.60;;;;;;5036102;28;20112;-53
2022/07/31 13:22:30;;;;;;;3.22;0.50;;;26.60;88.00;;;;;;5032376;28;20485;-59
2022/07/31 13:24:57;;;;;;;2.42;0.50;;;26.60;88.00;;;;;;5037734;28;20038;-52
2022/07/31 13:27:24;;;;;;;2.35;0.50;;;26.60;87.70;;;;;;5031986;28;20048;-55
2022/07/31 13:29:50;;;;;;;1.50;0.60;;;26.50;87.30;;;;;;5032187;28;20562;-52
2022/07/31 13:32:17;;;;;;;1.13;0.47;;;26.50;87.60;;;;;;5032563;28;20124;-57
2022/07/31 13:34:44;;;;;;;1.17;0.40;;;26.40;87.60;;;;;;5032233;28;20091;-51
2022/07/31 13:37:11;;;;;;;3.15;0.50;;;26.40;87.20;;;;;;5032096;28;20041;-52
2022/07/31 13:39:37;;;;;;;4.63;0.50;;;26.60;87.50;;;;;;5038726;28;20491;-52
2022/07/31 13:42:04;;;;;;;3.33;0.50;;;26.70;87.30;;;;;;5035979;28;20037;-58
2022/07/31 13:44:32;;;;;;;1.73;0.40;;;26.90;86.80;;;;;;5036135;28;20443;-50
2022/07/31 13:46:58;;;;;;;2.30;0.50;;;27.00;86.50;;;;;;5037850;28;20037;-54
2022/07/31 13:49:30;;;;;;;2.03;0.50;;;27.10;85.70;;;;;;5035737;28;20396;-54
2022/07/31 13:51:57;;;;;;;1.27;0.40;;;27.10;85.90;;;;;;5039172;28;20037;-51
2022/07/31 13:54:25;;;;;;;2.08;0.50;;;27.00;85.80;;;;;;5034209;28;20052;-53
2022/07/31 13:56:51;;;;;;;1.40;0.43;;;27.00;85.80;;;;;;5034969;28;20080;-50
2022/07/31 13:59:19;;;;;;;4.47;0.60;;;27.00;86.30;;;;;;5040748;28;20485;-61
2022/07/31 14:01:49;;;;;;;4.88;0.47;;;27.00;85.90;;;;;;5035483;28;20045;-60
2022/07/31 14:04:36;;;;;;;1.98;0.50;;;27.10;85.90;;;;;;5034653;28;20136;-56
2022/07/31 14:07:05;;;;;;;0.90;0.40;;;27.10;85.90;;;;;;5035159;28;20107;-55
2022/07/31 14:09:36;;;;;;;2.38;0.45;;;27.10;86.00;;;;;;5035849;28;20076;-55
2022/07/31 14:12:03;;;;;;;1.27;0.50;;;27.30;85.70;;;;;;5035287;28;20485;-59
2022/07/31 14:14:31;;;;;;;2.20;0.50;;;27.30;85.50;;;;;;5034135;28;20037;-53
2022/07/31 14:16:58;;;;;;;1.88;0.50;;;27.40;85.40;;;;;;5035016;28;20114;-55
2022/07/31 14:19:25;;;;;;;2.00;0.60;;;27.40;85.10;;;;;;5035256;28;20476;-59
2022/07/31 14:21:52;;;;;;;1.10;0.40;;;27.50;85.30;;;;;;5035167;28;20504;-62
2022/07/31 14:24:23;;;;;;;2.67;0.60;;;27.60;85.30;;;;;;5039021;28;20041;-54
2022/07/31 14:26:49;;;;;;;1.00;0.40;;;27.80;84.90;;;;;;5034903;28;20064;-57
2022/07/31 14:29:16;;;;;;;1.75;0.50;;;27.90;84.20;;;;;;5035076;28;20488;-56
2022/07/31 14:31:43;;;;;;;1.23;0.50;;;28.00;84.10;;;;;;5035293;28;20103;-55
2022/07/31 14:34:10;;;;;;;3.90;0.52;;;28.20;83.10;;;;;;5034853;28;20123;-58
2022/07/31 14:36:36;;;;;;;1.77;0.45;;;28.10;82.70;;;;;;5034824;28;20048;-51
2022/07/31 14:39:03;;;;;;;0.68;0.30;;;28.10;82.40;;;;;;5035969;28;20067;-58
2022/07/31 14:41:30;;;;;;;0.70;0.30;;;28.00;82.70;;;;;;5033795;28;20045;-56
2022/07/31 14:43:56;;;;;;;0.93;0.30;;;27.90;83.00;;;;;;5035187;28;20041;-55
2022/07/31 14:46:23;;;;;;;0.98;0.30;;;27.80;83.00;;;;;;5034797;28;20053;-62
2022/07/31 14:48:50;;;;;;;1.50;0.30;;;27.70;83.20;;;;;;5033417;28;20052;-58
2022/07/31 14:51:17;;;;;;;0.75;0.40;;;27.60;83.30;;;;;;5037211;28;20077;-56
2022/07/31 14:53:44;;;;;;;0.47;0.20;;;27.70;83.30;;;;;;5033232;28;20064;-53
2022/07/31 14:56:10;;;;;;;1.02;0.30;;;27.70;83.10;;;;;;5033339;28;20096;-52
2022/07/31 14:58:37;;;;;;;2.40;0.38;;;27.60;83.40;;;;;;5036012;28;20045;-60
2022/07/31 15:01:24;;;;;;;0.70;0.30;;;27.70;83.40;;;;;;5034786;28;20095;-53
2022/07/31 15:03:56;;;;;;;1.92;0.30;;;27.80;83.20;;;;;;5033414;28;20049;-55
2022/07/31 15:06:23;;;;;;;1.15;0.40;;;27.60;82.50;;;;;;5034379;28;20087;-59
2022/07/31 15:09:10;;;;;;;1.30;0.40;;;27.50;83.30;;;;;;5034518;28;20119;-60
2022/07/31 15:11:36;;;;;;;0.90;0.43;;;27.30;83.50;;;;;;5035982;28;20391;-54
2022/07/31 15:14:23;;;;;;;2.05;0.50;;;27.10;83.60;;;;;;5033137;28;20068;-53
2022/07/31 15:16:50;;;;;;;0.80;0.30;;;26.90;84.40;;;;;;5034208;28;20103;-58
2022/07/31 15:19:17;;;;;;;0.35;0.20;;;27.10;84.50;;;;;;5037854;28;20052;-55
2022/07/31 15:21:44;;;;;;;3.15;0.40;;;27.10;84.30;;;;;;5034255;28;20069;-58
2022/07/31 15:24:31;;;;;;;1.02;0.40;;;27.20;84.50;;;;;;5036999;28;20073;-63
2022/07/31 15:26:58;;;;;;;0.85;0.32;;;27.20;83.70;;;;;;5032804;28;20099;-57
2022/07/31 15:29:24;;;;;;;1.00;0.40;;;27.30;84.30;;;;;;5034007;28;20091;-56
2022/07/31 15:32:11;;;;;;;3.72;0.35;;;27.30;84.00;;;;;;5036471;28;20061;-54
2022/07/31 15:34:38;;;;;;;0.88;0.40;;;27.30;83.90;;;;;;5033761;28;20041;-61
2022/07/31 15:37:05;;;;;;;0.85;0.30;;;27.20;84.00;;;;;;5032640;28;20051;-56
2022/07/31 15:39:32;;;;;;;0.70;0.30;;;27.40;84.20;;;;;;5034344;28;20099;-56
2022/07/31 15:42:00;;;;;;;0.50;0.30;;;27.50;84.60;;;;;;5033740;28;20103;-58
2022/07/31 15:44:27;;;;;;;2.75;0.30;;;27.60;83.90;;;;;;5037749;28;20068;-57
2022/07/31 15:46:54;;;;;;;0.90;0.30;;;27.70;83.60;;;;;;5033528;28;20061;-56
2022/07/31 15:49:21;;;;;;;2.55;0.30;;;27.60;83.90;;;;;;5033477;28;20107;-58
2022/07/31 15:51:48;;;;;;;0.90;0.30;;;27.60;83.70;;;;;;5033410;28;20480;-56
2022/07/31 15:54:14;;;;;;;1.20;0.40;;;27.60;84.00;;;;;;5036434;28;20052;-55
2022/07/31 15:56:41;;;;;;;0.50;0.22;;;27.50;84.30;;;;;;5029321;28;20049;-55
2022/07/31 15:59:08;;;;;;;0.40;0.20;;;27.50;84.30;;;;;;5028741;28;20033;-59
2022/07/31 16:01:36;;;;;;;1.33;0.45;;;27.70;84.20;;;;;;5030674;28;20049;-57
2022/07/31 16:04:03;;;;;;;1.70;0.40;;;27.80;83.90;;;;;;5023704;28;20041;-53
2022/07/31 16:06:42;;;;;;;0.88;0.30;;;28.30;83.60;;;;;;5032255;28;20120;-61
2022/07/31 16:09:16;;;;;;;1.58;0.40;;;29.10;82.20;;;;;;5037099;28;20399;-55
2022/07/31 16:11:42;;;;;;;1.50;0.40;;;29.70;80.60;;;;;;5033190;28;20068;-59
2022/07/31 16:14:29;;;;;;;0.93;0.30;;;30.20;79.20;;;;;;5033061;28;20048;-54
2022/07/31 16:16:56;;;;;;;3.47;0.40;;;30.10;79.10;;;;;;5032976;28;20072;-58
2022/07/31 16:19:23;;;;;;;1.05;0.40;;;30.10;79.00;;;;;;5033178;28;20492;-59
2022/07/31 16:21:51;;;;;;;1.13;0.50;;;30.10;78.90;;;;;;5033484;28;20431;-55
2022/07/31 16:24:20;;;;;;;1.48;0.43;;;30.00;79.00;;;;;;5031364;28;20496;-53
2022/07/31 16:26:47;;;;;;;0.98;0.40;;;30.50;78.60;;;;;;5032787;28;20045;-56
2022/07/31 16:29:16;;;;;;;0.82;0.35;;;31.00;77.60;;;;;;5037051;28;20045;-55
2022/07/31 16:32:02;;;;;;;1.42;0.40;;;31.40;76.80;;;;;;5031860;28;20400;-50
2022/07/31 16:34:29;;;;;;;1.90;0.30;;;31.00;76.40;;;;;;5032303;28;20389;-54
2022/07/31 16:36:56;;;;;;;2.08;0.30;;;30.50;76.80;;;;;;5032552;28;20049;-53
2022/07/31 16:39:23;;;;;;;0.90;0.30;;;30.10;77.40;;;;;;5032708;28;20388;-56
2022/07/31 16:41:49;;;;;;;0.90;0.40;;;30.20;78.10;;;;;;5026572;28;20527;-49
2022/07/31 16:44:20;;;;;;;0.85;0.32;;;30.50;77.70;;;;;;5032175;28;20507;-53
2022/07/31 16:46:47;;;;;;;3.25;0.30;;;30.40;77.60;;;;;;5026521;28;20443;-57
2022/07/31 16:49:20;;;;;;;2.63;0.30;;;30.30;77.90;;;;;;5032713;28;20045;-57
2022/07/31 16:52:02;;;;;;;1.10;0.40;;;30.70;77.60;;;;;;5034491;28;20042;-55
2022/07/31 16:54:28;;;;;;;1.60;0.30;;;31.10;76.80;;;;;;5030309;28;20063;-56
2022/07/31 16:56:55;;;;;;;0.52;0.30;;;31.30;76.00;;;;;;5032826;28;20037;-55
2022/07/31 16:59:22;;;;;;;1.00;0.30;;;31.80;76.20;;;;;;5032654;28;20053;-54
2022/07/31 17:01:50;;;;;;;0.40;0.20;;;32.10;74.70;;;;;;5032780;28;20042;-57
2022/07/31 17:04:25;;;;;;;2.17;0.43;;;32.20;74.10;;;;;;5032488;28;20037;-53
2022/07/31 17:06:52;;;;;;;0.73;0.20;;;32.20;74.10;;;;;;5032516;28;20042;-55
2022/07/31 17:09:19;;;;;;;0.68;0.30;;;31.90;73.80;;;;;;5034671;28;20038;-58
2022/07/31 17:11:46;;;;;;;1.10;0.30;;;31.90;74.40;;;;;;5032613;28;20087;-60
2022/07/31 17:14:13;;;;;;;0.90;0.30;;;32.20;73.70;;;;;;5034619;28;20042;-54
2022/07/31 17:16:39;;;;;;;0.70;0.30;;;32.10;72.80;;;;;;5036396;28;20045;-56
2022/07/31 17:19:13;;;;;;;0.80;0.30;;;32.30;73.30;;;;;;5036723;28;20460;-61
2022/07/31 17:21:40;;;;;;;1.23;0.50;;;32.60;72.70;;;;;;5036483;28;20111;-61
2022/07/31 17:24:10;;;;;;;2.17;0.50;;;32.40;72.50;;;;;;5036161;28;20048;-55
2022/07/31 17:26:41;;;;;;;1.83;0.30;;;32.10;72.50;;;;;;5036274;28;20041;-58
2022/07/31 17:29:08;;;;;;;2.58;0.50;;;31.60;73.10;;;;;;5036240;28;20042;-52
2022/07/31 17:31:35;;;;;;;2.33;0.40;;;31.30;73.50;;;;;;5036474;28;20049;-52
2022/07/31 17:34:01;;;;;;;0.88;0.40;;;30.60;73.90;;;;;;5036094;28;20092;-57
2022/07/31 17:36:35;;;;;;;2.35;0.40;;;30.10;75.20;;;;;;5035893;28;20042;-52
2022/07/31 17:39:01;;;;;;;1.63;0.30;;;29.70;76.30;;;;;;5041020;28;20084;-60
2022/07/31 17:41:28;;;;;;;2.60;0.65;;;29.50;76.80;;;;;;5036141;28;20037;-58
2022/07/31 17:43:55;;;;;;;3.30;0.40;;;29.20;77.40;;;;;;5035712;28;20439;-52
2022/07/31 17:46:21;;;;;;;0.57;0.30;;;29.00;78.10;;;;;;5035898;28;20092;-53
2022/07/31 17:49:10;;;;;;;1.08;0.40;;;28.80;78.70;;;;;;5036320;28;20087;-57
2022/07/31 17:51:44;;;;;;;2.88;0.70;;;28.50;79.40;;;;;;5036054;28;20120;-59
2022/07/31 17:54:25;;;;;;;2.60;0.70;;;28.50;80.00;;;;;;5035454;28;20123;-54
2022/07/31 17:56:53;;;;;;;1.83;0.80;;;28.30;80.90;;;;;;5035984;28;20042;-56
2022/07/31 17:59:19;;;;;;;3.45;0.90;;;28.10;81.80;;;;;;5035783;28;20045;-59
2022/07/31 18:01:46;;;;;;;2.72;1.30;;;27.90;82.70;;;;;;5034836;28;20052;-54
2022/07/31 18:04:27;;;;;;;3.03;1.10;;;27.70;83.60;;;;;;5033335;28;20037;-54
2022/07/31 18:06:54;;;;;;;3.25;1.35;;;27.40;84.20;;;;;;5030371;28;20136;-57
2022/07/31 18:09:22;;;;;;;3.42;1.35;;;27.30;84.80;;;;;;5034673;28;20538;-50
2022/07/31 18:11:49;;;;;;;3.65;1.50;;;27.20;85.00;;;;;;5038888;28;20037;-54
2022/07/31 18:14:15;;;;;;;4.97;1.55;;;27.10;85.90;;;;;;5035442;28;20518;-55
2022/07/31 18:16:44;;;;;;;5.10;1.95;;;26.90;86.50;;;;;;5032795;28;20034;-57
2022/07/31 18:19:11;;;;;;;4.07;1.65;;;26.90;86.30;;;;;;5032926;28;20132;-57
2022/07/31 18:21:37;;;;;;;5.72;2.15;;;26.90;86.10;;;;;;5035439;28;20041;-56
2022/07/31 18:24:04;;;;;;;2.72;1.38;;;26.90;86.80;;;;;;5034704;28;20041;-52
2022/07/31 18:26:31;;;;;;;3.05;1.40;;;26.90;86.90;;;;;;5034832;28;20041;-56
2022/07/31 18:28:58;;;;;;;7.00;1.40;;;26.80;86.70;;;;;;5035401;28;20045;-58
2022/07/31 18:31:24;;;;;;;4.70;1.67;;;26.80;87.10;;;;;;5035335;28;20030;-49
2022/07/31 18:34:01;;;;;;;6.15;1.70;;;26.80;86.90;;;;;;5037402;28;20077;-55
2022/07/31 18:36:28;;;;;;;4.93;1.40;;;26.70;87.20;;;;;;5026129;28;20037;-57
2022/07/31 18:38:54;;;;;;;4.95;1.35;;;26.70;87.60;;;;;;5034303;28;20097;-55
2022/07/31 18:41:21;;;;;;;3.10;1.48;;;26.60;87.70;;;;;;5035141;28;20046;-50
2022/07/31 18:43:48;;;;;;;4.43;1.60;;;26.60;87.90;;;;;;5034984;28;20099;-55
2022/07/31 18:46:15;;;;;;;3.95;1.40;;;26.50;88.10;;;;;;5034564;28;20038;-49
2022/07/31 18:48:41;;;;;;;3.45;1.42;;;26.50;88.40;;;;;;5036901;28;20077;-54
2022/07/31 18:51:08;;;;;;;5.13;1.48;;;26.50;88.70;;;;;;5034898;28;20091;-49
2022/07/31 18:53:35;;;;;;;3.95;1.52;;;26.50;88.70;;;;;;5033414;28;20107;-57
2022/07/31 18:56:02;;;;;;;3.72;1.55;;;26.40;88.80;;;;;;5034833;28;20041;-54
2022/07/31 18:58:29;;;;;;;4.20;1.75;;;26.40;88.90;;;;;;5034764;28;20595;-53
2022/07/31 19:00:56;;;;;;;4.60;1.40;;;26.40;88.90;;;;;;5034635;28;20042;-54
2022/07/31 19:03:25;;;;;;;4.82;1.70;;;26.40;88.90;;;;;;5036178;28;20056;-50
2022/07/31 19:05:51;;;;;;;5.00;1.73;;;26.30;89.10;;;;;;5032860;28;20507;-57
2022/07/31 19:08:18;;;;;;;3.10;1.45;;;26.30;89.30;;;;;;5039672;28;20033;-47
2022/07/31 19:10:47;;;;;;;5.90;1.52;;;26.30;89.40;;;;;;5033253;28;20034;-54
2022/07/31 19:13:15;;;;;;;4.60;1.50;;;26.20;89.30;;;;;;5037310;28;20067;-56
2022/07/31 19:15:45;;;;;;;5.35;1.67;;;26.20;88.90;;;;;;5033977;28;20077;-54
2022/07/31 19:18:11;;;;;;;3.40;1.35;;;26.20;88.20;;;;;;5036429;28;20041;-53
2022/07/31 19:20:40;;;;;;;3.58;1.88;;;26.20;85.40;;;;;;5034368;28;20110;-56
2022/07/31 19:23:27;;;;;;;3.22;1.70;;;26.10;85.70;;;;;;5032575;28;20053;-54
2022/07/31 19:25:54;;;;;;;5.50;1.60;;;26.10;85.40;;;;;;5033572;28;20037;-58
2022/07/31 19:28:30;;;;;;;1.58;0.90;;;26.10;85.70;;;;;;5033113;28;20076;-56
2022/07/31 19:30:56;;;;;;;3.75;0.85;;;26.10;84.20;;;;;;5034177;28;20064;-58
2022/07/31 19:33:23;;;;;;;3.35;1.10;;;26.00;84.10;;;;;;5036215;28;20439;-47
2022/07/31 19:35:50;;;;;;;2.20;1.10;;;25.90;85.10;;;;;;5032847;28;20042;-54
2022/07/31 19:38:24;;;;;;;3.38;1.10;;;25.80;85.90;;;;;;5033903;28;20519;-52
2022/07/31 19:40:51;;;;;;;2.72;1.25;;;25.70;86.60;;;;;;5033946;28;20132;-56
2022/07/31 19:43:18;;;;;;;3.05;1.10;;;25.60;87.30;;;;;;5033957;28;20049;-50
2022/07/31 19:45:46;;;;;;;3.17;1.20;;;25.50;87.90;;;;;;5033425;28;20041;-51
2022/07/31 19:48:32;;;;;;;4.82;1.63;;;25.40;88.60;;;;;;5036101;28;20055;-53
2022/07/31 19:50:59;;;;;;;2.50;1.50;;;25.20;88.90;;;;;;5034690;28;20096;-56
2022/07/31 19:53:26;;;;;;;3.60;1.70;;;25.20;89.30;;;;;;5034480;28;20051;-54
2022/07/31 19:55:52;;;;;;;2.30;1.20;;;25.00;89.60;;;;;;5034569;28;20090;-54
2022/07/31 19:58:20;;;;;;;2.92;1.40;;;24.90;89.90;;;;;;5033653;28;20048;-52
2022/07/31 20:00:47;;;;;;;3.38;1.50;;;24.80;90.20;;;;;;5032420;28;20053;-56
2022/07/31 20:03:14;;;;;;;1.63;1.10;;;24.70;90.30;;;;;;5036748;28;20099;-52
2022/07/31 20:05:40;;;;;;;3.72;1.35;;;24.50;90.60;;;;;;5032910;28;20063;-56
2022/07/31 20:08:07;;;;;;;4.80;1.50;;;24.40;90.80;;;;;;5033268;28;20041;-55
2022/07/31 20:10:34;;;;;;;1.88;1.10;;;24.30;91.00;;;;;;5033206;28;20095;-56
2022/07/31 20:13:00;;;;;;;2.83;1.40;;;24.20;91.10;;;;;;5036792;28;20045;-56
2022/07/31 20:15:27;;;;;;;4.28;1.52;;;24.10;91.20;;;;;;5032857;28;20180;-56
2022/07/31 20:18:15;;;;;;;4.95;2.20;;;24.10;91.30;;;;;;5035058;28;20111;-54
2022/07/31 20:20:53;;;;;;;4.78;1.80;;;24.10;91.60;;;;;;5028311;28;20132;-53
2022/07/31 20:23:22;;;;;;;3.13;1.48;;;24.10;91.20;;;;;;5031529;28;20049;-53
2022/07/31 20:25:49;;;;;;;2.13;1.42;;;24.00;91.30;;;;;;5032707;28;20042;-56
2022/07/31 20:28:16;;;;;;;2.97;1.75;;;24.00;91.30;;;;;;5032913;28;20436;-49
2022/07/31 20:30:42;;;;;;;1.90;1.40;;;23.90;91.40;;;;;;5032731;28;20049;-45
2022/07/31 20:33:09;;;;;;;6.50;1.33;;;23.80;91.50;;;;;;5031666;28;20045;-52
2022/07/31 20:35:40;;;;;;;4.03;1.60;;;23.70;91.50;;;;;;5035225;28;20053;-56
2022/07/31 20:38:15;;;;;;;2.35;1.30;;;23.70;91.60;;;;;;5032744;28;20041;-49
2022/07/31 20:40:42;;;;;;;5.43;1.30;;;23.60;91.60;;;;;;5025707;28;20050;-58
2022/07/31 20:43:18;;;;;;;3.95;1.55;;;23.70;91.70;;;;;;5031637;28;20046;-54
2022/07/31 20:45:45;;;;;;;5.38;1.60;;;23.70;91.70;;;;;;5033392;28;20495;-56
2022/07/31 20:48:12;;;;;;;4.32;1.52;;;23.60;91.60;;;;;;5027291;28;20045;-56
2022/07/31 20:50:39;;;;;;;2.47;1.50;;;23.50;91.60;;;;;;5029670;28;20404;-55
2022/07/31 20:53:06;;;;;;;4.80;1.50;;;23.60;91.70;;;;;;5026066;28;21547;-54
2022/07/31 20:55:33;;;;;;;2.97;1.30;;;23.60;91.70;;;;;;5028597;28;20041;-53
2022/07/31 20:58:00;;;;;;;2.60;1.33;;;23.50;91.70;;;;;;5031234;28;20435;-55
2022/07/31 21:00:28;;;;;;;2.00;1.23;;;23.50;91.70;;;;;;5031913;28;20049;-53
2022/07/31 21:02:55;;;;;;;1.83;1.33;;;23.50;91.70;;;;;;5035457;28;20045;-53
2022/07/31 21:05:27;;;;;;;2.33;1.60;;;23.50;91.60;;;;;;5032877;28;20116;-51
2022/07/31 21:07:55;;;;;;;2.80;1.70;;;23.40;91.70;;;;;;5030601;28;20047;-56
2022/07/31 21:10:24;;;;;;;3.05;1.63;;;23.40;91.80;;;;;;5032904;28;20544;-49
2022/07/31 21:12:50;;;;;;;4.70;1.63;;;23.30;91.80;;;;;;5028466;28;20488;-55
2022/07/31 21:15:17;;;;;;;2.88;1.90;;;23.10;91.90;;;;;;5028482;28;20041;-56
2022/07/31 21:18:04;;;;;;;4.63;1.58;;;23.10;91.90;;;;;;5030113;28;20037;-53
2022/07/31 21:20:31;;;;;;;3.30;1.50;;;23.10;92.10;;;;;;5027288;28;20045;-52
2022/07/31 21:23:18;;;;;;;3.92;1.50;;;23.00;92.10;;;;;;5017550;28;20041;-55
2022/07/31 21:25:45;;;;;;;9.98;2.67;;;22.90;92.30;;;;;;5025100;28;20037;-50
2022/07/31 21:28:11;;;;;;;2.05;1.33;;;22.80;92.40;;;;;;5029648;28;20037;-58
2022/07/31 21:30:38;;;;;;;1.90;1.50;;;22.70;92.40;;;;;;5027824;28;20451;-48
2022/07/31 21:33:05;;;;;;;2.05;1.52;;;22.60;92.40;;;;;;5030149;28;20435;-50
2022/07/31 21:35:31;;;;;;;3.45;1.52;;;22.60;92.50;;;;;;5034295;28;20481;-48
2022/07/31 21:38:03;;;;;;;2.30;1.77;;;22.50;92.30;;;;;;5031292;28;20049;-52
2022/07/31 21:40:30;;;;;;;4.35;1.80;;;22.50;92.30;;;;;;5030889;28;20064;-48
2022/07/31 21:42:56;;;;;;;3.00;1.80;;;22.50;92.40;;;;;;5031633;28;20041;-55
2022/07/31 21:45:24;;;;;;;2.30;1.80;;;22.40;92.50;;;;;;5030425;28;20037;-52
2022/07/31 21:47:54;;;;;;;2.50;1.60;;;22.40;92.50;;;;;;5032273;28;20045;-50
2022/07/31 21:50:21;;;;;;;3.40;2.20;;;22.30;92.70;;;;;;5032339;28;20069;-54
2022/07/31 21:52:54;;;;;;;2.20;1.80;;;22.20;92.90;;;;;;5033308;28;20041;-55
2022/07/31 21:55:21;;;;;;;5.00;1.90;;;22.10;93.10;;;;;;5032607;28;20115;-51
2022/07/31 21:57:48;;;;;;;4.40;2.25;;;22.00;93.10;;;;;;5036618;28;20045;-49